createdAt,value
2023-01-25T00:00:36.087Z,102337.23
2023-01-25T00:03:30.663Z,102335.23
2023-01-25T00:06:03.393Z,102336.65
2023-01-25T00:08:36.095Z,102330.43
2023-01-25T00:11:08.497Z,102322.21
2023-01-25T00:13:40.731Z,102325.55
2023-01-25T00:16:13.193Z,102322.92
2023-01-25T00:18:45.499Z,102324.15
2023-01-25T00:21:19.339Z,102320.06
2023-01-25T00:23:52.284Z,102316.48
2023-01-25T00:26:24.862Z,102309.44
2023-01-25T00:28:58.041Z,102308.80
2023-01-25T00:31:42.177Z,102311.05
2023-01-25T00:34:44.872Z,102312.65
2023-01-25T00:37:26.536Z,102311.27
2023-01-25T00:39:58.959Z,102313.42
2023-01-25T00:42:31.288Z,102313.45
2023-01-25T00:45:03.672Z,102313.94
2023-01-25T00:47:35.992Z,102310.30
2023-01-25T00:50:13.306Z,102304.54
2023-01-25T00:52:45.774Z,102302.52
2023-01-25T00:55:18.218Z,102302.16
2023-01-25T00:57:50.620Z,102299.81
2023-01-25T01:00:23.279Z,102294.81
2023-01-25T01:02:56.778Z,102291.03
2023-01-25T01:05:29.594Z,102293.63
2023-01-25T01:08:02.165Z,102286.52
2023-01-25T01:10:34.534Z,102285.92
2023-01-25T01:13:06.834Z,102283.09
2023-01-25T01:15:40.138Z,102279.48
2023-01-25T01:18:12.583Z,102282.42
2023-01-25T01:20:51.394Z,102282.59
2023-01-25T01:23:24.010Z,102283.20
2023-01-25T01:25:56.479Z,102287.59
2023-01-25T01:28:28.970Z,102284.27
2023-01-25T01:31:04.648Z,102280.42
2023-01-25T01:33:39.829Z,102276.23
2023-01-25T01:36:15.531Z,102270.70
2023-01-25T01:38:47.936Z,102266.52
2023-01-25T01:41:20.929Z,102264.48
2023-01-25T01:43:53.792Z,102259.00
2023-01-25T01:46:29.479Z,102254.27
2023-01-25T01:49:05.923Z,102255.73
2023-01-25T01:51:48.857Z,102256.42
2023-01-25T01:54:28.791Z,102259.19
2023-01-25T01:57:06.964Z,102251.77
2023-01-25T01:59:45.530Z,102253.15
2023-01-25T02:02:18.203Z,102246.36
2023-01-25T02:04:53.011Z,102246.41
2023-01-25T02:07:31.534Z,102239.30
2023-01-25T02:10:06.548Z,102231.07
2023-01-25T02:12:39.855Z,102222.75
2023-01-25T02:15:15.863Z,102220.42
2023-01-25T02:17:48.755Z,102218.80
2023-01-25T02:20:27.893Z,102219.04
2023-01-25T02:23:08.597Z,102214.29
2023-01-25T02:25:41.434Z,102208.42
2023-01-25T02:28:19.860Z,102214.68
2023-01-25T02:30:52.337Z,102208.56
2023-01-25T02:33:27.899Z,102201.63
2023-01-25T02:36:16.705Z,102202.11
2023-01-25T02:38:55.799Z,102197.72
2023-01-25T02:41:39.494Z,102195.91
2023-01-25T02:44:15.233Z,102193.56
2023-01-25T02:46:48.088Z,102187.70
2023-01-25T02:49:20.865Z,102187.79
2023-01-25T02:51:57.544Z,102187.91
2023-01-25T02:54:30.218Z,102179.86
2023-01-25T02:57:02.674Z,102176.53
2023-01-25T02:59:40.671Z,102178.59
2023-01-25T03:02:13.208Z,102179.59
2023-01-25T03:04:46.132Z,102173.64
2023-01-25T03:07:18.679Z,102172.40
2023-01-25T03:09:51.053Z,102170.64
2023-01-25T03:12:24.705Z,102163.38
2023-01-25T03:14:57.218Z,102157.58
2023-01-25T03:17:31.309Z,102156.63
2023-01-25T03:20:03.889Z,102159.37
2023-01-25T03:22:36.983Z,102160.21
2023-01-25T03:25:11.159Z,102163.36
2023-01-25T03:27:44.725Z,102165.65
2023-01-25T03:30:18.214Z,102161.66
2023-01-25T03:32:50.883Z,102157.80
2023-01-25T03:35:24.592Z,102150.62
2023-01-25T03:37:57.334Z,102147.70
2023-01-25T03:40:29.781Z,102148.21
2023-01-25T03:43:02.166Z,102139.84
2023-01-25T03:45:34.734Z,102144.12
2023-01-25T03:48:07.905Z,102145.04
2023-01-25T03:50:40.272Z,102137.90
2023-01-25T03:53:27.145Z,102129.92
2023-01-25T03:56:02.792Z,102129.70
2023-01-25T03:58:37.311Z,102134.23
2023-01-25T04:01:10.714Z,102132.77
2023-01-25T04:03:43.448Z,102129.50
2023-01-25T04:06:16.276Z,102124.21
2023-01-25T04:08:49.243Z,102128.20
2023-01-25T04:11:22.151Z,102123.26
2023-01-25T04:13:54.649Z,102121.50
2023-01-25T04:16:30.617Z,102116.63
2023-01-25T04:19:17.489Z,102116.22
2023-01-25T04:21:49.908Z,102111.75
2023-01-25T04:24:23.172Z,102108.52
2023-01-25T04:26:55.695Z,102105.59
2023-01-25T04:29:40.036Z,102105.15
2023-01-25T04:32:14.071Z,102107.09
2023-01-25T04:34:46.760Z,102104.66
2023-01-25T04:37:21.266Z,102098.83
2023-01-25T04:40:03.013Z,102097.52
2023-01-25T04:42:38.613Z,102097.80
2023-01-25T04:45:12.671Z,102092.73
2023-01-25T04:47:45.132Z,102086.89
2023-01-25T04:50:17.752Z,102090.72
2023-01-25T04:52:51.399Z,102091.30
2023-01-25T04:55:24.658Z,102093.04
2023-01-25T04:57:57.588Z,102092.66
2023-01-25T05:00:30.461Z,102090.74
2023-01-25T05:03:03.898Z,102087.83
2023-01-25T05:05:37.761Z,102091.73
2023-01-25T05:08:14.843Z,102084.14
2023-01-25T05:10:47.427Z,102078.93
2023-01-25T05:13:31.999Z,102073.47
2023-01-25T05:16:13.213Z,102064.52
2023-01-25T05:18:48.907Z,102063.82
2023-01-25T05:21:45.502Z,102053.62
2023-01-25T05:24:18.603Z,102050.59
2023-01-25T05:27:04.616Z,102050.56
2023-01-25T05:29:55.981Z,102050.85
2023-01-25T05:32:33.136Z,102044.02
2023-01-25T05:35:05.950Z,102043.39
2023-01-25T05:37:38.736Z,102041.33
2023-01-25T05:40:14.492Z,102045.38
2023-01-25T05:42:46.867Z,102041.13
2023-01-25T05:45:22.536Z,102041.98
2023-01-25T05:47:57.714Z,102042.09
2023-01-25T05:50:30.517Z,102047.28
2023-01-25T05:53:15.365Z,102049.20
2023-01-25T05:55:47.866Z,102049.39
2023-01-25T05:58:21.390Z,102048.75
2023-01-25T06:00:53.693Z,102048.04
2023-01-25T06:03:32.930Z,102048.70
2023-01-25T06:06:06.702Z,102046.42
2023-01-25T06:08:40.213Z,102041.48
2023-01-25T06:11:14.665Z,102038.76
2023-01-25T06:13:50.868Z,102032.82
2023-01-25T06:16:23.490Z,102029.86
2023-01-25T06:19:13.967Z,102025.98
2023-01-25T06:22:10.931Z,102024.18
2023-01-25T06:24:43.352Z,102022.88
2023-01-25T06:27:15.800Z,102024.02
2023-01-25T06:29:48.264Z,102023.17
2023-01-25T06:32:20.720Z,102027.52
2023-01-25T06:34:53.420Z,102024.71
2023-01-25T06:37:27.634Z,102025.43
2023-01-25T06:39:59.963Z,102021.70
2023-01-25T06:42:32.335Z,102019.34
2023-01-25T06:45:04.674Z,102015.91
2023-01-25T06:47:37.002Z,102019.56
2023-01-25T06:50:12.697Z,102016.52
2023-01-25T06:52:45.272Z,102020.94
2023-01-25T06:55:17.947Z,102018.96
2023-01-25T06:57:50.631Z,102015.45
2023-01-25T07:00:23.558Z,102014.13
2023-01-25T07:02:55.995Z,102015.66
2023-01-25T07:05:28.420Z,102025.20
2023-01-25T07:08:00.815Z,102018.46
2023-01-25T07:15:24.557Z,102014.59
2023-01-25T07:18:03.162Z,102008.98
2023-01-25T07:20:40.664Z,102007.73
2023-01-25T07:23:12.967Z,102007.35
2023-01-25T07:25:48.706Z,102004.00
2023-01-25T07:28:21.111Z,102005.46
2023-01-25T07:30:53.607Z,102001.14
2023-01-25T07:33:25.988Z,101998.38
2023-01-25T07:36:02.664Z,101993.30
2023-01-25T07:38:35.391Z,101996.88
2023-01-25T07:41:07.969Z,101996.66
2023-01-25T07:43:40.351Z,101993.34
2023-01-25T07:46:17.351Z,101987.59
2023-01-25T07:48:51.538Z,101984.65
2023-01-25T07:51:25.233Z,101984.20
2023-01-25T07:53:59.239Z,101984.87
2023-01-25T07:56:34.024Z,101978.63
2023-01-25T07:59:08.709Z,101973.55
2023-01-25T08:01:42.128Z,101971.08
2023-01-25T08:04:14.533Z,101973.39
2023-01-25T08:06:48.003Z,101972.65
2023-01-25T08:09:20.962Z,101980.33
2023-01-25T08:11:53.756Z,101976.27
2023-01-25T08:14:26.267Z,101964.64
2023-01-25T08:16:58.710Z,101956.11
2023-01-25T08:19:33.670Z,101951.95
2023-01-25T08:22:08.192Z,101951.07
2023-01-25T08:24:40.634Z,101954.21
2023-01-25T08:27:13.126Z,101955.43
2023-01-25T08:29:45.451Z,101950.17
2023-01-25T08:32:17.799Z,101949.77
2023-01-25T08:34:50.157Z,101946.19
2023-01-25T08:37:22.585Z,101942.61
2023-01-25T08:39:57.269Z,101945.97
2023-01-25T08:42:29.747Z,101946.45
2023-01-25T08:45:02.896Z,101939.46
2023-01-25T08:47:35.330Z,101937.58
2023-01-25T08:50:10.990Z,101943.35
2023-01-25T08:52:43.498Z,101944.56
2023-01-25T08:55:15.979Z,101937.00
2023-01-25T08:57:50.471Z,101925.19
2023-01-25T09:00:24.644Z,101918.05
2023-01-25T09:02:57.000Z,101916.13
2023-01-25T09:05:30.662Z,101915.39
2023-01-25T09:08:03.274Z,101919.91
2023-01-25T09:10:35.857Z,101911.67
2023-01-25T09:13:08.870Z,101906.80
2023-01-25T09:15:41.681Z,101909.70
2023-01-25T09:18:14.849Z,101907.11
2023-01-25T09:20:47.271Z,101906.48
2023-01-25T09:23:23.869Z,101906.02
2023-01-25T09:26:01.064Z,101900.48
2023-01-25T09:28:34.553Z,101897.13
2023-01-25T09:31:20.971Z,101892.50
2023-01-25T09:34:08.750Z,101889.59
2023-01-25T09:36:41.902Z,101889.36
2023-01-25T09:39:14.657Z,101893.88
2023-01-25T09:42:15.650Z,101891.35
2023-01-25T09:44:59.708Z,101889.78
2023-01-25T09:47:39.595Z,101887.58
2023-01-25T09:50:30.507Z,101880.11
2023-01-25T09:53:18.450Z,101874.39
2023-01-25T09:55:58.894Z,101866.36
2023-01-25T09:58:36.204Z,101862.59
2023-01-25T10:01:37.567Z,101856.13
2023-01-25T10:04:15.985Z,101849.05
2023-01-25T10:07:00.245Z,101848.42
2023-01-25T10:09:42.696Z,101854.04
2023-01-25T10:12:21.826Z,101857.09
2023-01-25T10:14:55.519Z,101854.96
2023-01-25T10:17:34.921Z,101857.08
2023-01-25T10:20:24.268Z,101848.01
2023-01-25T10:23:21.003Z,101843.06
2023-01-25T10:26:00.682Z,101834.75
2023-01-25T10:28:44.869Z,101829.89
2023-01-25T10:31:20.781Z,101830.72
2023-01-25T10:33:54.726Z,101825.52
2023-01-25T10:36:31.714Z,101828.86
2023-01-25T10:39:07.596Z,101830.83
2023-01-25T10:41:43.187Z,101830.13
2023-01-25T10:44:25.681Z,101832.33
2023-01-25T10:47:07.384Z,101824.45
2023-01-25T10:49:44.173Z,101822.91
2023-01-25T10:52:20.065Z,101818.56
2023-01-25T10:55:16.869Z,101813.27
2023-01-25T10:57:52.758Z,101805.23
2023-01-25T11:00:30.806Z,101799.63
2023-01-25T11:03:03.405Z,101797.95
2023-01-25T11:05:38.040Z,101799.08
2023-01-25T11:08:26.250Z,101794.34
2023-01-25T11:11:00.554Z,101786.07
2023-01-25T11:13:35.760Z,101783.08
2023-01-25T11:16:17.774Z,101781.67
2023-01-25T11:18:55.541Z,101773.66
2023-01-25T11:21:30.288Z,101767.80
2023-01-25T11:24:05.668Z,101767.23
2023-01-25T11:26:40.088Z,101766.33
2023-01-25T11:29:17.465Z,101756.08
2023-01-25T11:31:51.796Z,101754.15
2023-01-25T11:34:28.574Z,101751.86
2023-01-25T11:37:23.887Z,101746.45
2023-01-25T11:40:09.141Z,101739.69
2023-01-25T11:42:51.055Z,101733.73
2023-01-25T11:46:01.678Z,101730.08
2023-01-25T11:49:00.221Z,101724.35
2023-01-25T11:51:42.594Z,101715.92
2023-01-25T11:54:40.270Z,101703.55
2023-01-25T11:57:28.627Z,101702.92
2023-01-25T12:00:15.401Z,101697.90
2023-01-25T12:03:22.681Z,101695.00
2023-01-25T12:06:04.246Z,101691.83
2023-01-25T12:08:57.863Z,101690.95
2023-01-25T12:11:44.733Z,101681.91
2023-01-25T12:14:29.359Z,101680.77
2023-01-25T12:17:17.238Z,101681.53
2023-01-25T12:20:07.162Z,101671.49
2023-01-25T12:22:55.335Z,101669.36
2023-01-25T12:25:37.398Z,101663.98
2023-01-25T12:28:17.051Z,101658.11
2023-01-25T12:30:55.950Z,101648.48
2023-01-25T12:33:35.462Z,101648.25
2023-01-25T12:36:14.904Z,101645.29
2023-01-25T12:38:54.123Z,101640.91
2023-01-25T12:41:34.662Z,101634.38
2023-01-25T12:44:15.430Z,101632.45
2023-01-25T12:46:53.388Z,101627.87
2023-01-25T12:49:34.824Z,101627.05
2023-01-25T12:52:17.034Z,101624.88
2023-01-25T12:54:50.956Z,101623.08
2023-01-25T12:57:29.654Z,101612.05
2023-01-25T13:00:18.921Z,101607.80
2023-01-25T13:03:12.283Z,101607.27
2023-01-25T13:05:51.389Z,101603.59
2023-01-25T13:08:35.972Z,101602.20
2023-01-25T13:11:16.423Z,101601.66
2023-01-25T13:13:48.920Z,101599.04
2023-01-25T13:16:44.574Z,101593.14
2023-01-25T13:19:41.932Z,101585.48
2023-01-25T13:22:16.505Z,101586.61
2023-01-25T13:25:22.263Z,101585.12
2023-01-25T13:28:15.024Z,101578.52
2023-01-25T13:30:56.028Z,101571.42
2023-01-25T13:33:37.433Z,101562.23
2023-01-25T13:36:46.560Z,101560.11
2023-01-25T13:39:47.187Z,101557.22
2023-01-25T13:42:23.811Z,101555.27
2023-01-25T13:44:58.527Z,101554.18
2023-01-25T13:47:37.925Z,101546.90
2023-01-25T13:50:23.590Z,101546.17
2023-01-25T13:53:03.803Z,101540.38
2023-01-25T13:55:43.863Z,101543.93
2023-01-25T13:58:20.719Z,101541.94
2023-01-25T14:00:56.834Z,101537.35
2023-01-25T14:03:32.096Z,101537.37
2023-01-25T14:06:04.333Z,101528.86
2023-01-25T14:08:37.553Z,101525.96
2023-01-25T14:11:10.690Z,101522.35
2023-01-25T14:13:58.537Z,101517.25
2023-01-25T14:16:32.353Z,101511.87
2023-01-25T14:19:29.083Z,101508.85
2023-01-25T14:22:23.449Z,101502.49
2023-01-25T14:25:13.937Z,101497.54
2023-01-25T14:27:48.534Z,101496.95
2023-01-25T14:30:23.903Z,101495.70
2023-01-25T14:32:58.405Z,101496.69
2023-01-25T14:35:53.718Z,101492.92
2023-01-25T14:38:30.804Z,101485.15
2023-01-25T14:41:08.306Z,101483.95
2023-01-25T14:43:45.437Z,101483.90
2023-01-25T14:46:29.961Z,101481.02
2023-01-25T14:49:26.657Z,101481.06
2023-01-25T14:52:07.486Z,101479.85
2023-01-25T14:54:48.920Z,101479.92
2023-01-25T14:57:34.170Z,101472.09
2023-01-25T15:00:18.568Z,101465.85
2023-01-25T15:02:55.306Z,101467.31
2023-01-25T15:05:29.421Z,101466.71
2023-01-25T15:08:17.856Z,101466.54
2023-01-25T15:10:58.331Z,101459.96
2023-01-25T15:13:31.224Z,101456.55
2023-01-25T15:16:05.957Z,101450.34
2023-01-25T15:18:51.183Z,101442.13
2023-01-25T15:21:28.488Z,101447.10
2023-01-25T15:24:06.683Z,101450.36
2023-01-25T15:26:39.484Z,101454.90
2023-01-25T15:29:16.238Z,101450.08
2023-01-25T15:31:49.442Z,101446.13
2023-01-25T15:34:25.762Z,101444.88
2023-01-25T15:36:58.029Z,101441.55
2023-01-25T15:39:31.615Z,101439.33
2023-01-25T15:42:04.025Z,101437.70
2023-01-25T15:44:36.488Z,101438.03
2023-01-25T15:47:11.142Z,101442.05
2023-01-25T15:49:43.462Z,101442.98
2023-01-25T15:52:15.943Z,101438.40
2023-01-25T15:54:55.913Z,101433.14
2023-01-25T15:57:35.963Z,101430.02
2023-01-25T16:00:16.481Z,101427.91
2023-01-25T16:02:49.340Z,101428.30
2023-01-25T16:05:21.839Z,101424.98
2023-01-25T16:07:54.192Z,101417.48
2023-01-25T16:10:27.570Z,101419.41
2023-01-25T16:13:00.028Z,101415.66
2023-01-25T16:15:32.322Z,101409.58
2023-01-25T16:18:04.784Z,101403.39
2023-01-25T16:20:37.298Z,101400.80
2023-01-25T16:23:10.254Z,101401.45
2023-01-25T16:25:45.379Z,101404.09
2023-01-25T16:28:18.600Z,101402.64
2023-01-25T16:30:50.960Z,101401.34
2023-01-25T16:33:25.000Z,101399.04
2023-01-25T16:36:13.524Z,101395.99
2023-01-25T16:38:46.261Z,101390.85
2023-01-25T16:41:18.923Z,101383.19
2023-01-25T16:43:53.663Z,101380.55
2023-01-25T16:46:26.396Z,101379.23
2023-01-25T16:49:00.234Z,101380.09
2023-01-25T16:51:33.221Z,101377.81
2023-01-25T16:54:05.836Z,101371.70
2023-01-25T16:56:38.673Z,101372.51
2023-01-25T16:59:12.339Z,101369.09
2023-01-25T17:01:45.027Z,101369.96
2023-01-25T17:04:17.772Z,101363.48
2023-01-25T17:06:53.141Z,101365.42
2023-01-25T17:09:25.832Z,101364.14
2023-01-25T17:11:58.219Z,101365.31
2023-01-25T17:14:30.650Z,101363.67
2023-01-25T17:17:05.406Z,101356.11
2023-01-25T17:19:37.789Z,101352.25
2023-01-25T17:22:10.384Z,101353.27
2023-01-25T17:24:42.789Z,101353.48
2023-01-25T17:27:15.971Z,101353.48
2023-01-25T17:29:48.383Z,101350.88
2023-01-25T17:32:20.761Z,101347.67
2023-01-25T17:34:53.853Z,101343.06
2023-01-25T17:37:26.222Z,101338.62
2023-01-25T17:39:58.650Z,101337.98
2023-01-25T17:42:31.113Z,101338.16
2023-01-25T17:45:03.469Z,101338.36
2023-01-25T17:47:36.974Z,101336.98
2023-01-25T17:50:12.722Z,101332.06
2023-01-25T17:52:45.257Z,101327.36
2023-01-25T17:55:17.766Z,101325.38
2023-01-25T17:57:51.345Z,101326.95
2023-01-25T18:00:25.215Z,101321.55
2023-01-25T18:02:58.574Z,101320.46
2023-01-25T18:05:31.124Z,101321.40
2023-01-25T18:08:03.433Z,101315.84
2023-01-25T18:10:35.823Z,101305.35
2023-01-25T18:13:08.208Z,101306.42
2023-01-25T18:15:40.542Z,101300.83
2023-01-25T18:18:12.880Z,101299.13
2023-01-25T18:20:45.247Z,101297.37
2023-01-25T18:23:17.671Z,101300.76
2023-01-25T18:25:50.567Z,101295.09
2023-01-25T18:28:22.900Z,101295.15
2023-01-25T18:31:00.690Z,101294.37
2023-01-25T18:33:33.797Z,101296.70
2023-01-25T18:36:07.135Z,101291.02
2023-01-25T18:38:39.611Z,101284.30
2023-01-25T18:41:12.184Z,101282.97
2023-01-25T18:43:44.587Z,101277.02
2023-01-25T18:46:17.151Z,101273.39
2023-01-25T18:48:51.156Z,101265.13
2023-01-25T18:51:23.729Z,101260.36
2023-01-25T18:53:56.498Z,101256.03
2023-01-25T18:56:29.463Z,101257.58
2023-01-25T18:59:02.032Z,101254.36
2023-01-25T19:01:34.481Z,101244.90
2023-01-25T19:04:07.679Z,101239.76
2023-01-25T19:06:40.130Z,101235.70
2023-01-25T19:09:13.720Z,101235.64
2023-01-25T19:11:46.168Z,101233.82
2023-01-25T19:14:19.336Z,101227.91
2023-01-25T19:16:52.397Z,101218.44
2023-01-25T19:19:25.277Z,101214.48
2023-01-25T19:21:57.731Z,101210.72
2023-01-25T19:24:31.066Z,101210.94
2023-01-25T19:27:09.455Z,101211.92
2023-01-25T19:29:42.112Z,101204.63
2023-01-25T19:32:14.661Z,101201.73
2023-01-25T19:34:46.968Z,101205.26
2023-01-25T19:37:19.480Z,101205.67
2023-01-25T19:39:54.207Z,101207.48
2023-01-25T19:42:28.523Z,101207.79
2023-01-25T19:45:03.104Z,101207.68
2023-01-25T19:47:35.596Z,101212.79
2023-01-25T19:50:12.752Z,101207.83
2023-01-25T19:52:45.263Z,101200.55
2023-01-25T19:55:17.975Z,101194.23
2023-01-25T19:57:50.584Z,101197.20
2023-01-25T20:00:24.872Z,101203.50
2023-01-25T20:03:07.226Z,101203.45
2023-01-25T20:05:47.425Z,101195.05
2023-01-25T20:08:19.770Z,101186.33
2023-01-25T20:10:52.150Z,101183.62
2023-01-25T20:13:24.576Z,101181.20
2023-01-25T20:15:57.673Z,101184.70
2023-01-25T20:18:31.263Z,101186.20
2023-01-25T20:21:06.206Z,101186.70
2023-01-25T20:23:40.454Z,101192.96
2023-01-25T20:26:15.733Z,101191.19
2023-01-25T20:28:51.667Z,101190.12
2023-01-25T20:31:26.126Z,101183.89
2023-01-25T20:34:00.710Z,101181.79
2023-01-25T20:36:34.932Z,101176.89
2023-01-25T20:39:08.958Z,101177.30
2023-01-25T20:41:41.273Z,101180.53
2023-01-25T20:44:15.731Z,101179.88
2023-01-25T20:46:48.950Z,101178.02
2023-01-25T20:49:21.498Z,101171.18
2023-01-25T20:51:53.829Z,101160.83
2023-01-25T20:54:26.482Z,101160.97
2023-01-25T20:56:58.826Z,101160.88
2023-01-25T20:59:31.270Z,101158.75
2023-01-25T21:02:03.642Z,101157.41
2023-01-25T21:04:36.128Z,101158.10
2023-01-25T21:07:08.546Z,101164.59
2023-01-25T21:09:42.849Z,101165.23
2023-01-25T21:12:15.626Z,101155.25
2023-01-25T21:14:48.553Z,101148.86
2023-01-25T21:17:20.952Z,101145.89
2023-01-25T21:19:53.339Z,101137.02
2023-01-25T21:22:25.901Z,101134.63
2023-01-25T21:24:58.443Z,101129.13
2023-01-25T21:27:30.970Z,101125.11
2023-01-25T21:30:03.767Z,101123.38
2023-01-25T21:32:36.209Z,101121.89
2023-01-25T21:35:10.644Z,101120.30
2023-01-25T21:37:44.492Z,101119.80
2023-01-25T21:40:20.611Z,101115.05
2023-01-25T21:42:52.989Z,101111.58
2023-01-25T21:45:42.999Z,101121.05
2023-01-25T21:48:35.644Z,101114.09
2023-01-25T21:51:29.965Z,101114.42
2023-01-25T21:54:02.658Z,101112.01
2023-01-25T21:56:35.086Z,101109.00
2023-01-25T21:59:07.586Z,101105.66
2023-01-25T22:01:40.480Z,101108.24
2023-01-25T22:04:14.084Z,101109.28
2023-01-25T22:06:48.773Z,101109.71
2023-01-25T22:09:21.765Z,101113.02
2023-01-25T22:11:55.936Z,101109.02
2023-01-25T22:14:28.558Z,101107.24
2023-01-25T22:17:02.307Z,101097.89
2023-01-25T22:19:34.656Z,101098.09
2023-01-25T22:22:06.986Z,101099.31
2023-01-25T22:24:39.438Z,101098.81
2023-01-25T22:27:32.757Z,101100.76
2023-01-25T22:30:05.382Z,101094.84
2023-01-25T22:32:37.825Z,101095.04
2023-01-25T22:35:11.222Z,101097.77
2023-01-25T22:37:43.535Z,101096.33
2023-01-25T22:40:16.610Z,101098.75
2023-01-25T22:42:49.004Z,101096.16
2023-01-25T22:45:21.449Z,101094.40
2023-01-25T22:47:53.904Z,101090.80
2023-01-25T22:50:26.603Z,101087.88
2023-01-25T22:52:58.968Z,101087.08
2023-01-25T22:55:32.246Z,101082.52
2023-01-25T22:58:04.623Z,101077.90
2023-01-25T23:00:37.532Z,101065.82
2023-01-25T23:03:10.305Z,101064.66
2023-01-25T23:05:43.074Z,101062.40
2023-01-25T23:08:15.462Z,101060.42
2023-01-25T23:10:48.000Z,101058.59
2023-01-25T23:13:20.331Z,101057.75
2023-01-25T23:15:52.725Z,101058.45
2023-01-25T23:18:42.999Z,101057.35
2023-01-25T23:21:15.596Z,101055.70
2023-01-25T23:23:48.128Z,101050.64
2023-01-25T23:26:20.543Z,101046.23
2023-01-25T23:28:54.545Z,101047.15
2023-01-25T23:31:27.442Z,101052.29
2023-01-25T23:34:02.450Z,101042.36
2023-01-25T23:36:38.770Z,101037.27
2023-01-25T23:39:15.309Z,101030.48
2023-01-25T23:41:49.122Z,101028.41
2023-01-25T23:44:21.820Z,101019.61
2023-01-25T23:46:54.542Z,101016.36
2023-01-25T23:49:26.953Z,101015.06
2023-01-25T23:51:59.403Z,101014.21
2023-01-25T23:54:32.134Z,101010.55
2023-01-25T23:57:04.756Z,101013.28
2023-01-25T23:59:37.603Z,101010.38
